EZY2356 LSGG-EGBB
Flight info
| Callsign | EZY2356 |
|---|---|
| Flight time | N/A |
| Altitude | 38000 |
| Route | SIROD1N SIROD Z124 IBABA DCT TUTAX DCT OBURO DCT OKRIX DCT CLM DCT KOPOR DCT ABNUR DCT DIMAL DCT ALESO T420 HEMEL HEMEL1B |
| Aircraft | A320/M-SDE3FGHIRWY/LB1 |
Departure
| Time | 2026-05-07 19:46 |
|---|---|
| Airport | Geneva International Airport (LSGG) |
Arrival
| Time | N/A |
|---|---|
| Airport | Birmingham Airport (EGBB) |
| Time | Latitude | Longitude | Altitude | Speed | Heading |
|---|---|---|---|---|---|
| 2026-05-07 19:15 | 46.23787 | 6.11351 | 1395 ft | 0 kts | 136° |
| 2026-05-07 19:24 | 46.23787 | 6.11350 | 1402 ft | 0 kts | 136° |
| 2026-05-07 19:26 | 46.23788 | 6.11350 | 1402 ft | 0 kts | 136° |
| 2026-05-07 19:26 | 46.23787 | 6.11350 | 1402 ft | 0 kts | 136° |
| 2026-05-07 19:26 | 46.23788 | 6.11350 | 1402 ft | 0 kts | 136° |
| 2026-05-07 19:34 | 46.23792 | 6.11343 | 1404 ft | 4 kts | 139° |
| 2026-05-07 19:34 | 46.23814 | 6.11321 | 1407 ft | 4 kts | 155° |
| 2026-05-07 19:34 | 46.23839 | 6.11310 | 1406 ft | 4 kts | 178° |
| 2026-05-07 19:34 | 46.23864 | 6.11315 | 1407 ft | 4 kts | 214° |
| 2026-05-07 19:35 | 46.23870 | 6.11322 | 1407 ft | 1 kts | 225° |
| 2026-05-07 19:37 | 46.23870 | 6.11321 | 1407 ft | 0 kts | 225° |
| 2026-05-07 19:37 | 46.23861 | 6.11308 | 1405 ft | 5 kts | 225° |
| 2026-05-07 19:38 | 46.23830 | 6.11262 | 1405 ft | 8 kts | 225° |
| 2026-05-07 19:38 | 46.23784 | 6.11194 | 1400 ft | 11 kts | 226° |
| 2026-05-07 19:38 | 46.23723 | 6.11107 | 1400 ft | 15 kts | 225° |
| 2026-05-07 19:38 | 46.23640 | 6.10983 | 1399 ft | 20 kts | 226° |
| 2026-05-07 19:39 | 46.23533 | 6.10828 | 1397 ft | 23 kts | 225° |
| 2026-05-07 19:39 | 46.23417 | 6.10658 | 1402 ft | 24 kts | 220° |
| 2026-05-07 19:39 | 46.23301 | 6.10499 | 1403 ft | 23 kts | 225° |
| 2026-05-07 19:39 | 46.23202 | 6.10355 | 1406 ft | 15 kts | 225° |
| 2026-05-07 19:40 | 46.23141 | 6.10259 | 1399 ft | 12 kts | 232° |
| 2026-05-07 19:40 | 46.23090 | 6.10177 | 1400 ft | 10 kts | 225° |
| 2026-05-07 19:40 | 46.23043 | 6.10109 | 1402 ft | 9 kts | 225° |
| 2026-05-07 19:40 | 46.22998 | 6.10043 | 1397 ft | 10 kts | 226° |
| 2026-05-07 19:41 | 46.22953 | 6.09976 | 1398 ft | 8 kts | 226° |
| 2026-05-07 19:41 | 46.22919 | 6.09926 | 1404 ft | 5 kts | 226° |
| 2026-05-07 19:41 | 46.22895 | 6.09891 | 1402 ft | 6 kts | 226° |
| 2026-05-07 19:41 | 46.22853 | 6.09828 | 1402 ft | 12 kts | 226° |
| 2026-05-07 19:42 | 46.22778 | 6.09721 | 1403 ft | 18 kts | 226° |
| 2026-05-07 19:42 | 46.22681 | 6.09581 | 1405 ft | 22 kts | 224° |
| 2026-05-07 19:42 | 46.22577 | 6.09421 | 1405 ft | 21 kts | 234° |
| 2026-05-07 19:42 | 46.22554 | 6.09343 | 1402 ft | 0 kts | 259° |
| 2026-05-07 19:44 | 46.22552 | 6.09328 | 1403 ft | 5 kts | 259° |
| 2026-05-07 19:45 | 46.22551 | 6.09245 | 1403 ft | 12 kts | 275° |
| 2026-05-07 19:45 | 46.22614 | 6.09164 | 1402 ft | 16 kts | 11° |
| 2026-05-07 19:45 | 46.22706 | 6.09283 | 1410 ft | 22 kts | 45° |
| 2026-05-07 19:45 | 46.22949 | 6.09641 | 1402 ft | 86 kts | 45° |
| 2026-05-07 19:46 | 46.23514 | 6.10466 | 1402 ft | 143 kts | 45° |
| 2026-05-07 19:46 | 46.24305 | 6.11634 | 1571 ft | 174 kts | 45° |
| 2026-05-07 19:46 | 46.25163 | 6.12887 | 2173 ft | 179 kts | 45° |
| 2026-05-07 19:46 | 46.26044 | 6.14180 | 2851 ft | 180 kts | 45° |
| 2026-05-07 19:47 | 46.26923 | 6.15474 | 3523 ft | 180 kts | 46° |
| 2026-05-07 19:47 | 46.27798 | 6.16766 | 4166 ft | 180 kts | 47° |
| 2026-05-07 19:47 | 46.28673 | 6.18065 | 4807 ft | 180 kts | 47° |
| 2026-05-07 19:47 | 46.29547 | 6.19369 | 5408 ft | 181 kts | 47° |
| 2026-05-07 19:48 | 46.30457 | 6.20719 | 5776 ft | 197 kts | 46° |
| 2026-05-07 19:48 | 46.31447 | 6.22176 | 6239 ft | 208 kts | 47° |
| 2026-05-07 19:48 | 46.32477 | 6.23681 | 6855 ft | 212 kts | 46° |
| 2026-05-07 19:48 | 46.33521 | 6.25204 | 7484 ft | 216 kts | 46° |
| 2026-05-07 19:49 | 46.34600 | 6.26785 | 7692 ft | 221 kts | 46° |
| 2026-05-07 19:49 | 46.35816 | 6.28208 | 7791 ft | 236 kts | 20° |
| 2026-05-07 19:49 | 46.37391 | 6.28315 | 8660 ft | 219 kts | 335° |
| 2026-05-07 19:49 | 46.38512 | 6.27077 | 9580 ft | 200 kts | 296° |
| 2026-05-07 19:50 | 46.38833 | 6.25083 | 9707 ft | 218 kts | 256° |
| 2026-05-07 19:50 | 46.38074 | 6.23230 | 10296 ft | 213 kts | 213° |
| 2026-05-07 19:50 | 46.36753 | 6.22724 | 11378 ft | 194 kts | 174° |
| 2026-05-07 19:50 | 46.35475 | 6.23581 | 11620 ft | 225 kts | 137° |
| 2026-05-07 19:51 | 46.34730 | 6.25739 | 11755 ft | 256 kts | 95° |
| 2026-05-07 19:51 | 46.35110 | 6.28101 | 12950 ft | 230 kts | 54° |
| 2026-05-07 19:51 | 46.36265 | 6.29540 | 13779 ft | 223 kts | 19° |
| 2026-05-07 19:51 | 46.37878 | 6.29773 | 13633 ft | 252 kts | 341° |
| 2026-05-07 19:52 | 46.39307 | 6.28397 | 14190 ft | 241 kts | 300° |
| 2026-05-07 19:52 | 46.39722 | 6.26313 | 15466 ft | 202 kts | 262° |
| 2026-05-07 19:52 | 46.39356 | 6.24340 | 15936 ft | 210 kts | 250° |
| 2026-05-07 19:52 | 46.38776 | 6.22308 | 16243 ft | 223 kts | 245° |
| 2026-05-07 19:53 | 46.38067 | 6.20353 | 17010 ft | 213 kts | 240° |
| 2026-05-07 19:53 | 46.37276 | 6.18586 | 17728 ft | 209 kts | 236° |
| 2026-05-07 19:53 | 46.36350 | 6.16858 | 17959 ft | 227 kts | 231° |
| 2026-05-07 19:53 | 46.35261 | 6.15152 | 18430 ft | 231 kts | 226° |
| 2026-05-07 19:54 | 46.34126 | 6.13607 | 19162 ft | 220 kts | 230° |
| 2026-05-07 19:54 | 46.33303 | 6.11738 | 19473 ft | 227 kts | 252° |
| 2026-05-07 19:54 | 46.33036 | 6.09449 | 19733 ft | 234 kts | 271° |
| 2026-05-07 19:54 | 46.33314 | 6.07232 | 19969 ft | 218 kts | 289° |
| 2026-05-07 19:55 | 46.34065 | 6.05296 | 19426 ft | 231 kts | 308° |
| 2026-05-07 19:55 | 46.35284 | 6.03904 | 19606 ft | 209 kts | 333° |
| 2026-05-07 19:55 | 46.36716 | 6.03637 | 19275 ft | 221 kts | 13° |
| 2026-05-07 19:55 | 46.38069 | 6.04766 | 18964 ft | 224 kts | 33° |
| 2026-05-07 19:56 | 46.39264 | 6.05930 | 19145 ft | 194 kts | 25° |
| 2026-05-07 19:56 | 46.40493 | 6.06819 | 18595 ft | 207 kts | 17° |
| 2026-05-07 19:56 | 46.41929 | 6.07488 | 18238 ft | 225 kts | 7° |
| 2026-05-07 19:56 | 46.43346 | 6.07826 | 19193 ft | 184 kts | 359° |
| 2026-05-07 19:57 | 46.44561 | 6.07896 | 19675 ft | 180 kts | 352° |
| 2026-05-07 19:57 | 46.45967 | 6.07660 | 19332 ft | 222 kts | 343° |
| 2026-05-07 19:57 | 46.47351 | 6.07106 | 20290 ft | 185 kts | 334° |
| 2026-05-07 19:57 | 46.48339 | 6.06519 | 20988 ft | 167 kts | 328° |